createdAt,value
2018-06-25T00:00:12.926Z,99169.48
2018-06-25T00:02:41.963Z,99166.38
2018-06-25T00:05:10.953Z,99172.08
2018-06-25T00:07:39.936Z,99170.60
2018-06-25T00:10:08.964Z,99167.63
2018-06-25T00:12:37.993Z,99168.95
2018-06-25T00:15:07.104Z,99166.81
2018-06-25T00:17:36.061Z,99169.78
2018-06-25T00:20:05.187Z,99166.64
2018-06-25T00:22:34.151Z,99164.19
2018-06-25T00:25:03.141Z,99159.28
2018-06-25T00:27:32.129Z,99161.90
2018-06-25T00:30:01.230Z,99164.86
2018-06-25T00:32:30.277Z,99161.90
2018-06-25T00:34:59.252Z,99164.19
2018-06-25T00:37:28.272Z,99155.66
2018-06-25T00:39:57.225Z,99153.52
2018-06-25T00:42:26.288Z,99152.88
2018-06-25T00:44:55.328Z,99154.19
2018-06-25T00:47:24.311Z,99158.30
2018-06-25T00:49:53.284Z,99157.16
2018-06-25T00:52:22.260Z,99147.94
2018-06-25T00:54:51.243Z,99148.94
2018-06-25T00:57:20.256Z,99154.70
2018-06-25T00:59:53.347Z,99157.98
2018-06-25T01:02:22.756Z,99149.79
2018-06-25T01:04:52.629Z,99149.79
2018-06-25T01:07:22.090Z,99149.62
2018-06-25T01:09:51.515Z,99150.42
2018-06-25T01:12:20.524Z,99149.94
2018-06-25T01:14:50.920Z,99146.80
2018-06-25T01:17:19.984Z,99143.69
2018-06-25T01:19:49.700Z,99149.11
2018-06-25T01:22:18.692Z,99145.80
2018-06-25T01:24:47.670Z,99145.48
2018-06-25T01:27:16.675Z,99142.03
2018-06-25T01:29:45.661Z,99148.59
2018-06-25T01:32:14.641Z,99147.80
2018-06-25T01:34:43.637Z,99154.22
2018-06-25T01:37:12.653Z,99147.48
2018-06-25T01:39:41.631Z,99153.41
2018-06-25T01:42:10.608Z,99153.42
2018-06-25T01:44:39.656Z,99153.42
2018-06-25T01:47:08.719Z,99153.08
2018-06-25T01:49:37.788Z,99154.73
2018-06-25T01:52:07.399Z,99156.88
2018-06-25T01:54:37.677Z,99153.73
2018-06-25T01:57:07.585Z,99160.32
2018-06-25T01:59:36.665Z,99161.97
2018-06-25T02:02:05.715Z,99159.66
2018-06-25T02:04:35.742Z,99162.47
2018-06-25T02:07:04.741Z,99155.73
2018-06-25T02:09:33.716Z,99154.89
2018-06-25T02:12:02.696Z,99155.22
2018-06-25T02:14:31.687Z,99155.87
2018-06-25T02:17:00.896Z,99159.97
2018-06-25T02:19:29.860Z,99158.33
2018-06-25T02:21:58.827Z,99159.65
2018-06-25T02:24:27.912Z,99159.81
2018-06-25T02:26:56.908Z,99157.34
2018-06-25T02:29:25.977Z,99163.27
2018-06-25T02:31:56.847Z,99164.90
2018-06-25T02:34:25.836Z,99169.00
2018-06-25T02:36:55.009Z,99168.19
2018-06-25T02:39:24.137Z,99166.69
2018-06-25T02:41:53.800Z,99167.86
2018-06-25T02:44:22.975Z,99166.86
2018-06-25T02:46:53.057Z,99170.48
2018-06-25T02:49:22.144Z,99184.58
2018-06-25T02:51:51.213Z,99179.98
2018-06-25T02:54:20.303Z,99183.26
2018-06-25T02:56:49.328Z,99189.84
2018-06-25T02:59:18.531Z,99188.55
2018-06-25T03:01:47.493Z,99184.27
2018-06-25T03:04:16.468Z,99181.97
2018-06-25T03:06:46.013Z,99181.31
2018-06-25T03:09:15.065Z,99174.23
2018-06-25T03:11:44.020Z,99178.20
2018-06-25T03:14:13.020Z,99180.16
2018-06-25T03:16:42.015Z,99190.50
2018-06-25T03:19:11.101Z,99186.39
2018-06-25T03:21:40.324Z,99188.38
2018-06-25T03:24:09.300Z,99186.09
2018-06-25T03:26:38.273Z,99185.26
2018-06-25T03:29:07.355Z,99184.27
2018-06-25T03:31:36.347Z,99188.05
2018-06-25T03:34:05.377Z,99182.97
2018-06-25T03:36:34.387Z,99189.34
2018-06-25T03:39:03.915Z,99184.91
2018-06-25T03:41:32.867Z,99187.19
2018-06-25T03:44:01.853Z,99183.93
2018-06-25T03:46:30.895Z,99186.05
2018-06-25T03:48:59.960Z,99184.56
2018-06-25T03:51:29.920Z,99179.98
2018-06-25T03:53:58.876Z,99186.22
2018-06-25T03:56:27.924Z,99183.39
2018-06-25T03:58:56.907Z,99189.31
2018-06-25T04:01:25.948Z,99182.94
2018-06-25T04:03:55.013Z,99190.63
2018-06-25T04:06:24.092Z,99195.23
2018-06-25T04:08:53.093Z,99200.00
2018-06-25T04:11:22.096Z,99199.14
2018-06-25T04:13:51.975Z,99200.78
2018-06-25T04:16:20.947Z,99203.25
2018-06-25T04:19:05.183Z,99207.19
2018-06-25T04:21:37.380Z,99210.77
2018-06-25T04:24:06.668Z,99215.17
2018-06-25T04:26:35.648Z,99211.72
2018-06-25T04:29:04.733Z,99212.06
2018-06-25T04:31:34.039Z,99219.11
2018-06-25T04:34:03.392Z,99213.52
2018-06-25T04:36:32.825Z,99219.59
2018-06-25T04:39:02.308Z,99222.54
2018-06-25T04:41:31.408Z,99227.48
2018-06-25T04:44:00.610Z,99221.73
2018-06-25T04:46:29.844Z,99225.67
2018-06-25T04:48:58.868Z,99224.88
2018-06-25T04:51:27.828Z,99223.22
2018-06-25T04:53:56.864Z,99226.19
2018-06-25T04:56:25.822Z,99231.11
2018-06-25T04:58:54.802Z,99229.78
2018-06-25T05:01:23.838Z,99233.07
2018-06-25T05:03:52.807Z,99231.87
2018-06-25T05:06:21.935Z,99230.86
2018-06-25T05:08:50.991Z,99233.45
2018-06-25T05:11:19.972Z,99229.28
2018-06-25T05:13:49.037Z,99236.78
2018-06-25T05:16:18.065Z,99232.48
2018-06-25T05:18:47.117Z,99228.98
2018-06-25T05:21:16.104Z,99233.02
2018-06-25T05:23:45.124Z,99232.30
2018-06-25T05:26:14.149Z,99229.44
2018-06-25T05:28:43.131Z,99227.05
2018-06-25T05:31:12.101Z,99230.12
2018-06-25T05:33:41.115Z,99231.37
2018-06-25T05:36:10.684Z,99231.58
2018-06-25T05:38:39.673Z,99236.22
2018-06-25T05:41:08.725Z,99242.00
2018-06-25T05:43:37.762Z,99239.42
2018-06-25T05:46:06.786Z,99239.03
2018-06-25T05:48:35.786Z,99240.69
2018-06-25T05:51:04.861Z,99237.78
2018-06-25T05:53:34.057Z,99236.98
2018-06-25T05:56:03.122Z,99240.25
2018-06-25T05:58:32.104Z,99237.59
2018-06-25T06:01:01.181Z,99242.62
2018-06-25T06:03:30.196Z,99247.42
2018-06-25T06:05:59.216Z,99244.02
2018-06-25T06:08:28.262Z,99245.87
2018-06-25T06:10:57.269Z,99250.77
2018-06-25T06:13:26.256Z,99250.47
2018-06-25T06:15:55.244Z,99244.31
2018-06-25T06:18:24.276Z,99247.75
2018-06-25T06:20:53.344Z,99247.90
2018-06-25T06:23:22.505Z,99242.47
2018-06-25T06:25:51.541Z,99236.90
2018-06-25T06:28:20.517Z,99234.80
2018-06-25T06:30:49.550Z,99238.65
2018-06-25T06:33:18.536Z,99236.94
2018-06-25T06:35:47.652Z,99243.58
2018-06-25T06:38:16.639Z,99238.27
2018-06-25T06:40:45.668Z,99236.22
2018-06-25T06:43:14.750Z,99236.77
2018-06-25T06:45:43.717Z,99237.53
2018-06-25T06:48:12.832Z,99233.56
2018-06-25T06:50:41.866Z,99231.98
2018-06-25T06:53:10.832Z,99238.04
2018-06-25T06:55:40.698Z,99231.55
2018-06-25T06:58:09.696Z,99226.45
2018-06-25T07:00:38.788Z,99227.19
2018-06-25T07:03:07.765Z,99226.09
2018-06-25T07:05:36.797Z,99231.63
2018-06-25T07:08:05.824Z,99229.09
2018-06-25T07:10:34.876Z,99223.61
2018-06-25T07:13:03.908Z,99225.47
2018-06-25T07:15:32.963Z,99221.17
2018-06-25T07:18:01.960Z,99227.73
2018-06-25T07:20:30.985Z,99220.02
2018-06-25T07:22:59.980Z,99220.39
2018-06-25T07:25:29.044Z,99223.44
2018-06-25T07:27:58.028Z,99216.50
2018-06-25T07:30:26.991Z,99218.97
2018-06-25T07:32:55.989Z,99213.51
2018-06-25T07:35:25.000Z,99206.47
2018-06-25T07:37:53.988Z,99211.27
2018-06-25T07:40:23.021Z,99205.30
2018-06-25T07:42:52.037Z,99203.53
2018-06-25T07:45:21.012Z,99206.03
2018-06-25T07:47:50.143Z,99206.33
2018-06-25T07:50:19.192Z,99203.64
2018-06-25T07:52:48.172Z,99206.40
2018-06-25T07:55:17.156Z,99204.53
2018-06-25T07:57:46.143Z,99203.47
2018-06-25T08:00:15.157Z,99200.05
2018-06-25T08:02:44.219Z,99201.92
2018-06-25T08:05:13.229Z,99197.78
2018-06-25T08:07:42.232Z,99203.03
2018-06-25T08:10:11.312Z,99194.33
2018-06-25T08:12:40.465Z,99199.83
2018-06-25T08:15:09.685Z,99189.19
2018-06-25T08:17:38.635Z,99189.63
2018-06-25T08:20:07.677Z,99192.83
2018-06-25T08:22:36.680Z,99187.89
2018-06-25T08:25:05.673Z,99196.16
2018-06-25T08:27:34.639Z,99190.84
2018-06-25T08:30:03.784Z,99188.56
2018-06-25T08:32:32.808Z,99184.79
2018-06-25T08:35:01.927Z,99184.86
2018-06-25T08:37:30.989Z,99181.48
2018-06-25T08:40:00.059Z,99186.20
2018-06-25T08:42:29.004Z,99187.53
2018-06-25T08:44:58.045Z,99185.41
2018-06-25T08:47:27.069Z,99180.36
2018-06-25T08:49:56.124Z,99183.48
2018-06-25T08:52:25.147Z,99180.48
2018-06-25T08:54:54.149Z,99179.17
2018-06-25T08:57:23.176Z,99176.91
2018-06-25T08:59:52.176Z,99171.77
2018-06-25T09:02:21.123Z,99168.41
2018-06-25T09:04:50.189Z,99169.84
2018-06-25T09:07:19.192Z,99169.02
2018-06-25T09:09:48.239Z,99167.60
2018-06-25T09:12:17.295Z,99164.09
2018-06-25T09:14:46.284Z,99163.78
2018-06-25T09:17:15.254Z,99167.63
2018-06-25T09:19:44.253Z,99174.69
2018-06-25T09:22:13.293Z,99175.30
2018-06-25T09:24:42.321Z,99173.59
2018-06-25T09:27:11.283Z,99170.81
2018-06-25T09:29:40.268Z,99172.15
2018-06-25T09:32:09.372Z,99162.34
2018-06-25T09:34:43.500Z,99171.81
2018-06-25T09:37:12.515Z,99170.92
2018-06-25T09:39:41.491Z,99171.20
2018-06-25T09:42:10.528Z,99164.65
2018-06-25T09:44:39.559Z,99168.02
2018-06-25T09:47:08.649Z,99175.84
2018-06-25T09:49:37.712Z,99170.39
2018-06-25T09:52:06.723Z,99171.99
2018-06-25T09:54:35.802Z,99169.45
2018-06-25T09:57:04.893Z,99172.50
2018-06-25T09:59:33.881Z,99165.06
2018-06-25T10:02:02.845Z,99162.03
2018-06-25T10:04:31.848Z,99158.91
2018-06-25T10:07:01.336Z,99153.63
2018-06-25T10:09:30.404Z,99157.30
2018-06-25T10:11:59.405Z,99160.08
2018-06-25T10:14:28.449Z,99157.25
2018-06-25T10:16:57.472Z,99154.34
2018-06-25T10:19:26.504Z,99153.70
2018-06-25T10:21:55.485Z,99150.15
2018-06-25T10:24:24.452Z,99142.85
2018-06-25T10:26:53.451Z,99145.78
2018-06-25T10:29:22.456Z,99141.00
2018-06-25T10:31:51.699Z,99140.63
2018-06-25T10:34:20.844Z,99148.92
2018-06-25T10:36:49.807Z,99144.34
2018-06-25T10:39:18.875Z,99133.32
2018-06-25T10:41:47.830Z,99123.66
2018-06-25T10:44:16.804Z,99125.06
2018-06-25T10:46:45.815Z,99129.14
2018-06-25T10:49:14.815Z,99128.28
2018-06-25T10:51:44.069Z,99131.30
2018-06-25T10:54:13.231Z,99124.56
2018-06-25T10:56:42.512Z,99122.27
2018-06-25T10:59:11.504Z,99129.22
2018-06-25T11:01:40.627Z,99126.45
2018-06-25T11:04:09.797Z,99129.88
2018-06-25T11:06:38.885Z,99126.35
2018-06-25T11:09:10.328Z,99127.17
2018-06-25T11:11:39.380Z,99128.33
2018-06-25T11:14:08.369Z,99127.89
2018-06-25T11:16:37.528Z,99130.72
2018-06-25T11:19:06.575Z,99133.89
2018-06-25T11:21:36.201Z,99124.23
2018-06-25T11:24:05.260Z,99125.63
2018-06-25T11:26:34.240Z,99120.36
2018-06-25T11:29:03.204Z,99123.37
2018-06-25T11:31:32.180Z,99121.35
2018-06-25T11:34:01.223Z,99125.22
2018-06-25T11:36:30.269Z,99117.92
2018-06-25T11:38:59.298Z,99129.95
2018-06-25T11:41:28.361Z,99114.59
2018-06-25T11:43:57.404Z,99116.63
2018-06-25T11:46:26.472Z,99116.15
2018-06-25T11:48:55.429Z,99120.40
2018-06-25T11:51:24.480Z,99104.63
2018-06-25T11:53:53.523Z,99118.72
2018-06-25T11:56:22.498Z,99114.75
2018-06-25T11:58:51.537Z,99114.10
2018-06-25T12:01:20.580Z,99116.73
2018-06-25T12:03:49.544Z,99118.62
2018-06-25T12:06:18.524Z,99113.52
2018-06-25T12:08:47.552Z,99110.48
2018-06-25T12:11:16.528Z,99113.98
2018-06-25T12:13:45.572Z,99110.30
2018-06-25T12:16:14.705Z,99105.78
2018-06-25T12:18:43.783Z,99109.33
2018-06-25T12:21:12.759Z,99104.30
2018-06-25T12:23:41.835Z,99105.63
2018-06-25T12:26:10.828Z,99101.96
2018-06-25T12:28:39.888Z,99103.64
2018-06-25T12:31:08.872Z,99101.07
2018-06-25T12:33:37.901Z,99101.95
2018-06-25T12:36:07.848Z,99098.91
2018-06-25T12:38:36.881Z,99104.16
2018-06-25T12:41:05.922Z,99100.92
2018-06-25T12:43:34.935Z,99103.50
2018-06-25T12:46:03.981Z,99107.27
2018-06-25T12:48:32.960Z,99103.14
2018-06-25T12:51:02.060Z,99105.63
2018-06-25T12:53:31.045Z,99089.36
2018-06-25T12:56:00.112Z,99094.61
2018-06-25T12:58:29.163Z,99089.72
2018-06-25T13:00:58.252Z,99082.61
2018-06-25T13:03:27.312Z,99081.11
2018-06-25T13:05:56.396Z,99076.28
2018-06-25T13:08:25.445Z,99081.33
2018-06-25T13:10:55.168Z,99079.59
2018-06-25T13:13:24.201Z,99075.64
2018-06-25T13:15:53.197Z,99073.66
2018-06-25T13:18:22.302Z,99079.99
2018-06-25T13:20:51.445Z,99077.48
2018-06-25T13:23:20.489Z,99070.41
2018-06-25T13:25:49.544Z,99075.41
2018-06-25T13:28:18.548Z,99066.96
2018-06-25T13:30:47.565Z,99066.03
2018-06-25T13:33:16.612Z,99071.48
2018-06-25T13:35:45.609Z,99068.67
2018-06-25T13:38:14.623Z,99068.73
2018-06-25T13:40:43.686Z,99067.28
2018-06-25T13:43:12.680Z,99068.52
2018-06-25T13:45:41.823Z,99063.11
2018-06-25T13:48:10.730Z,99062.64
2018-06-25T13:50:39.712Z,99056.75
2018-06-25T13:53:08.839Z,99058.66
2018-06-25T13:55:37.904Z,99052.59
2018-06-25T13:58:07.125Z,99052.40
2018-06-25T14:00:36.109Z,99045.23
2018-06-25T14:03:05.119Z,99051.02
2018-06-25T14:05:34.096Z,99051.21
2018-06-25T14:08:03.066Z,99053.27
2018-06-25T14:10:32.072Z,99055.33
2018-06-25T14:13:01.096Z,99055.68
2018-06-25T14:15:30.169Z,99045.21
2018-06-25T14:17:59.216Z,99049.13
2018-06-25T14:20:28.268Z,99047.59
2018-06-25T14:22:57.340Z,99050.00
2018-06-25T14:25:26.413Z,99047.96
2018-06-25T14:28:00.546Z,99045.17
2018-06-25T14:30:34.484Z,99046.79
2018-06-25T14:33:03.876Z,99053.06
2018-06-25T14:35:33.145Z,99042.28
2018-06-25T14:38:02.186Z,99041.23
2018-06-25T14:40:31.261Z,99042.21
2018-06-25T14:43:00.277Z,99045.63
2018-06-25T14:45:29.294Z,99046.72
2018-06-25T14:47:58.359Z,99042.95
2018-06-25T14:50:27.386Z,99037.91
2018-06-25T14:52:56.400Z,99041.19
2018-06-25T14:55:25.391Z,99037.49
2018-06-25T14:57:54.375Z,99030.75
2018-06-25T15:00:23.369Z,99028.59
2018-06-25T15:02:52.899Z,99031.84
2018-06-25T15:05:22.271Z,99034.30
2018-06-25T15:07:51.371Z,99029.61
2018-06-25T15:10:20.484Z,99026.09
2018-06-25T15:12:49.649Z,99023.01
2018-06-25T15:15:18.667Z,99029.17
2018-06-25T15:17:47.677Z,99032.77
2018-06-25T15:20:16.684Z,99031.16
2018-06-25T15:22:45.669Z,99036.05
2018-06-25T15:25:14.636Z,99035.78
2018-06-25T15:27:43.681Z,99036.11
2018-06-25T15:30:12.644Z,99026.82
2018-06-25T15:32:41.656Z,99026.39
2018-06-25T15:35:10.628Z,99019.16
2018-06-25T15:37:40.015Z,99021.47
2018-06-25T15:40:09.033Z,99017.16
2018-06-25T15:42:38.057Z,99017.41
2018-06-25T15:45:07.257Z,99022.78
2018-06-25T15:47:36.383Z,99023.84
2018-06-25T15:50:05.504Z,99021.25
2018-06-25T15:52:34.528Z,99024.31
2018-06-25T15:55:03.614Z,99017.53
2018-06-25T15:57:32.700Z,99024.19
2018-06-25T16:00:01.810Z,99023.45
2018-06-25T16:02:30.808Z,99025.41
2018-06-25T16:04:59.825Z,99030.08
2018-06-25T16:07:28.791Z,99021.30
2018-06-25T16:09:57.832Z,99020.75
2018-06-25T16:12:26.888Z,99021.10
2018-06-25T16:14:56.085Z,99022.86
2018-06-25T16:17:25.072Z,99016.53
2018-06-25T16:19:54.081Z,99016.16
2018-06-25T16:22:23.253Z,99022.74
2018-06-25T16:24:52.227Z,99018.30
2018-06-25T16:27:21.224Z,99021.70
2018-06-25T16:29:50.341Z,99024.34
2018-06-25T16:32:19.334Z,99026.02
2018-06-25T16:34:48.287Z,99029.80
2018-06-25T16:37:17.685Z,99021.77
2018-06-25T16:39:46.728Z,99028.70
2018-06-25T16:42:15.694Z,99025.13
2018-06-25T16:44:44.751Z,99030.14
2018-06-25T16:47:13.817Z,99030.16
2018-06-25T16:49:42.820Z,99033.02
2018-06-25T16:52:11.943Z,99035.48
2018-06-25T16:54:40.964Z,99035.74
2018-06-25T16:57:09.936Z,99033.39
2018-06-25T16:59:39.029Z,99027.83
2018-06-25T17:02:08.091Z,99023.67
2018-06-25T17:04:37.065Z,99025.65
2018-06-25T17:07:06.437Z,99033.89
2018-06-25T17:09:35.416Z,99042.45
2018-06-25T17:12:04.444Z,99015.22
2018-06-25T17:14:33.538Z,99033.65
2018-06-25T17:17:02.538Z,99036.46
2018-06-25T17:19:31.763Z,99035.78
2018-06-25T17:22:00.868Z,99027.77
2018-06-25T17:24:29.824Z,99039.10
2018-06-25T17:26:58.817Z,99040.53
2018-06-25T17:29:27.924Z,99039.64
2018-06-25T17:31:56.960Z,99045.86
2018-06-25T17:34:26.004Z,99044.33
2018-06-25T17:36:55.056Z,99047.52
2018-06-25T17:39:24.144Z,99049.25
2018-06-25T17:41:53.116Z,99063.32
2018-06-25T17:44:22.291Z,99060.55
2018-06-25T17:46:51.284Z,99064.31
2018-06-25T17:49:20.309Z,99063.11
2018-06-25T17:51:49.388Z,99063.79
2018-06-25T17:54:18.412Z,99060.72
2018-06-25T17:56:47.552Z,99062.73
2018-06-25T17:59:16.583Z,99060.31
2018-06-25T18:01:45.553Z,99059.05
2018-06-25T18:04:14.508Z,99064.25
2018-06-25T18:06:43.981Z,99069.52
2018-06-25T18:09:13.293Z,99071.72
2018-06-25T18:11:42.304Z,99072.19
2018-06-25T18:14:11.370Z,99067.44
2018-06-25T18:16:40.336Z,99067.90
2018-06-25T18:19:09.363Z,99064.86
2018-06-25T18:21:38.517Z,99073.02
2018-06-25T18:24:07.556Z,99078.78
2018-06-25T18:26:36.539Z,99071.06
2018-06-25T18:29:05.584Z,99079.88
2018-06-25T18:31:34.692Z,99079.92
2018-06-25T18:34:03.797Z,99085.75
2018-06-25T18:36:32.768Z,99090.09
2018-06-25T18:39:01.744Z,99084.95
2018-06-25T18:41:30.796Z,99082.48
2018-06-25T18:43:59.900Z,99078.70
2018-06-25T18:46:28.933Z,99080.53
2018-06-25T18:48:57.887Z,99082.23
2018-06-25T18:51:26.900Z,99073.44
2018-06-25T18:53:56.163Z,99081.43
2018-06-25T18:56:25.151Z,99078.20
2018-06-25T18:58:54.187Z,99080.92
2018-06-25T19:01:23.261Z,99074.97
2018-06-25T19:03:52.288Z,99071.67
2018-06-25T19:06:21.343Z,99074.18
2018-06-25T19:08:50.362Z,99080.80
2018-06-25T19:11:19.335Z,99086.28
2018-06-25T19:13:48.472Z,99087.35
2018-06-25T19:16:17.435Z,99090.48
2018-06-25T19:18:46.488Z,99091.70
2018-06-25T19:21:15.625Z,99096.16
2018-06-25T19:23:44.721Z,99102.01
2018-06-25T19:26:13.648Z,99105.16
2018-06-25T19:28:42.770Z,99104.47
2018-06-25T19:31:11.760Z,99113.91
2018-06-25T19:33:40.795Z,99121.25
2018-06-25T19:36:09.880Z,99123.82
2018-06-25T19:38:38.936Z,99124.24
2018-06-25T19:41:08.164Z,99131.51
2018-06-25T19:43:37.128Z,99134.78
2018-06-25T19:46:06.204Z,99130.19
2018-06-25T19:48:35.172Z,99139.34
2018-06-25T19:51:04.279Z,99134.47
2018-06-25T19:53:33.309Z,99143.04
2018-06-25T19:56:02.260Z,99142.77
2018-06-25T19:58:31.257Z,99151.23
2018-06-25T20:01:00.260Z,99154.30
2018-06-25T20:03:29.285Z,99152.00
2018-06-25T20:05:58.496Z,99155.63
2018-06-25T20:08:27.528Z,99153.70
2018-06-25T20:10:56.508Z,99154.69
2018-06-25T20:13:25.556Z,99147.48
2018-06-25T20:15:54.629Z,99154.37
2018-06-25T20:18:23.692Z,99156.47
2018-06-25T20:20:52.689Z,99159.77
2018-06-25T20:23:21.739Z,99155.47
2018-06-25T20:25:50.798Z,99155.03
2018-06-25T20:28:20.073Z,99152.63
2018-06-25T20:30:49.161Z,99158.97
2018-06-25T20:33:18.220Z,99158.02
2018-06-25T20:35:47.225Z,99156.88
2018-06-25T20:38:16.226Z,99156.59
2018-06-25T20:40:45.223Z,99159.05
2018-06-25T20:43:14.328Z,99166.03
2018-06-25T20:45:43.349Z,99161.25
2018-06-25T20:48:12.325Z,99161.91
2018-06-25T20:50:41.361Z,99177.03
2018-06-25T20:53:10.440Z,99173.27
2018-06-25T20:55:39.521Z,99174.12
2018-06-25T20:58:08.625Z,99168.42
2018-06-25T21:00:37.640Z,99161.44
2018-06-25T21:03:06.712Z,99165.73
2018-06-25T21:05:35.745Z,99165.26
2018-06-25T21:08:05.018Z,99163.12
2018-06-25T21:10:34.030Z,99168.25
2018-06-25T21:13:03.085Z,99169.61
2018-06-25T21:15:32.095Z,99173.86
2018-06-25T21:18:01.092Z,99173.73
2018-06-25T21:20:30.155Z,99174.13
2018-06-25T21:22:59.211Z,99176.76
2018-06-25T21:25:28.335Z,99167.79
2018-06-25T21:27:57.368Z,99175.38
2018-06-25T21:30:26.368Z,99170.99
2018-06-25T21:32:55.462Z,99175.59
2018-06-25T21:35:24.428Z,99164.94
2018-06-25T21:37:53.376Z,99157.23
2018-06-25T21:40:22.361Z,99160.20
2018-06-25T21:42:51.317Z,99155.78
2018-06-25T21:45:20.369Z,99153.84
2018-06-25T21:47:49.400Z,99152.02
2018-06-25T21:50:18.824Z,99152.02
2018-06-25T21:52:47.889Z,99154.81
2018-06-25T21:55:16.909Z,99153.67
2018-06-25T21:57:45.947Z,99153.02
2018-06-25T22:00:15.019Z,99154.02
2018-06-25T22:02:44.053Z,99148.11
2018-06-25T22:05:13.028Z,99150.08
2018-06-25T22:07:42.037Z,99145.03
2018-06-25T22:10:11.080Z,99144.20
2018-06-25T22:12:40.067Z,99147.52
2018-06-25T22:15:09.066Z,99151.63
2018-06-25T22:17:38.047Z,99142.47
2018-06-25T22:20:07.020Z,99137.07
2018-06-25T22:22:36.133Z,99138.55
2018-06-25T22:25:05.248Z,99136.95
2018-06-25T22:27:34.220Z,99137.44
2018-06-25T22:30:03.207Z,99133.02
2018-06-25T22:32:32.208Z,99130.58
2018-06-25T22:35:01.261Z,99138.14
2018-06-25T22:37:30.219Z,99139.59
2018-06-25T22:39:59.241Z,99128.97
2018-06-25T22:42:30.218Z,99131.90
2018-06-25T22:44:59.203Z,99133.57
2018-06-25T22:47:28.237Z,99135.05
2018-06-25T22:49:57.260Z,99137.69
2018-06-25T22:52:26.368Z,99131.62
2018-06-25T22:54:55.413Z,99130.77
2018-06-25T22:57:24.405Z,99126.52
2018-06-25T22:59:53.444Z,99136.70
2018-06-25T23:02:22.496Z,99131.94
2018-06-25T23:04:51.471Z,99132.42
2018-06-25T23:07:20.581Z,99129.31
2018-06-25T23:09:49.536Z,99119.81
2018-06-25T23:12:18.885Z,99123.09
2018-06-25T23:14:47.840Z,99116.52
2018-06-25T23:17:16.827Z,99117.03
2018-06-25T23:19:45.804Z,99107.52
2018-06-25T23:22:14.865Z,99103.10
2018-06-25T23:24:43.907Z,99093.95
2018-06-25T23:27:12.884Z,99098.88
2018-06-25T23:29:41.841Z,99096.25
2018-06-25T23:32:10.891Z,99103.46
2018-06-25T23:34:39.892Z,99103.46
2018-06-25T23:37:08.997Z,99103.45
2018-06-25T23:39:37.942Z,99102.81
2018-06-25T23:42:06.943Z,99089.81
2018-06-25T23:44:35.940Z,99084.10
2018-06-25T23:47:04.991Z,99092.27
2018-06-25T23:49:34.115Z,99097.67
2018-06-25T23:52:03.156Z,99086.83
2018-06-25T23:54:32.168Z,99080.28
2018-06-25T23:57:01.156Z,99075.70
2018-06-25T23:59:30.529Z,99082.55
